This is the latest recevied weather packets stored in our database for station/object EA4BCR. If no packets are shown the sender has not sent any weather packets the latest 10 day(s).
| Time | Temp. | Humidity | Pressure | Rain* | Wind** | Luminosity | Snow |
|---|---|---|---|---|---|---|---|
| 1787717413 | 17.22° C | 57% | 1013.3 hPa | - | - | - | - |
| 1787716813 | 17.22° C | 57% | 1013.1 hPa | - | - | - | - |
| 1787716213 | 16.67° C | 57% | 1013.2 hPa | - | - | - | - |
| 1787715613 | 16.67° C | 58% | 1013.6 hPa | - | - | - | - |
| 1787715013 | 16.67° C | 57% | 1013.6 hPa | - | - | - | - |
| 1787714413 | 16.11° C | 57% | 1013.7 hPa | - | - | - | - |
| 1787713813 | 16.11° C | 57% | 1013.5 hPa | - | - | - | - |
| 1787713213 | 16.11° C | 58% | 1013.5 hPa | - | - | - | - |
| 1787712614 | 15.56° C | 59% | 1013.6 hPa | - | - | - | - |
| 1787712013 | 16.11° C | 59% | 1013.8 hPa | - | - | - | - |
| 1787711413 | 15.56° C | 58% | 1014 hPa | - | - | - | - |
| 1787710813 | 15.56° C | 57% | 1014.3 hPa | - | - | - | - |
| 1787710213 | 15.56° C | 57% | 1014.4 hPa | - | - | - | - |
| 1787709613 | 15.56° C | 58% | 1014.5 hPa | - | - | - | - |
| 1787709013 | 15.56° C | 58% | 1014.7 hPa | - | - | - | - |
| 1787708413 | 16.67° C | 56% | 1014.3 hPa | - | - | - | - |
| 1787707813 | 15.56° C | 58% | 1014.7 hPa | - | - | - | - |
| 1787707213 | 15.56° C | 58% | 1014.9 hPa | - | - | - | - |
| 1787706613 | 16.11° C | 56% | 1014.8 hPa | - | - | - | - |
| 1787706013 | 16.67° C | 55% | 1014.5 hPa | - | - | - | - |
| 1787705413 | 16.67° C | 53% | 1014.6 hPa | - | - | - | - |
| 1787704813 | 16.67° C | 54% | 1014.5 hPa | - | - | - | - |
| 1787704213 | 17.22° C | 51% | 1014.4 hPa | - | - | - | - |
| 1787703613 | 17.78° C | 51% | 1014.3 hPa | - | - | - | - |
| 1787703013 | 17.78° C | 52% | 1014.4 hPa | - | - | - | - |
* Rain since midnight (hover to see other rain measurements)
** Current wind speed in m/s (hover to see current wind gust speed)